Time;durP1;ratioP1;P1;durP2;ratioP2;P2;SDS_P1;SDS_P2;PMS_P1;PMS_P2;Temp;Humidity;BMP_temperature;BMP_pressure;BME280_temperature;BME280_humidity;BME280_pressure;Samples;Min_cycle;Max_cycle;Signal;HPM_P1;HPM_P2
2022/06/10 03:08:12;;;;;;;4.33;2.83;;;;;;;23.72;47.82;100408.72;5065870;27;2081866;-64
2022/06/10 03:10:49;;;;;;;4.22;2.95;;;;;;;23.74;48.02;100411.97;5138462;27;20484;-64
2022/06/10 03:13:31;;;;;;;5.50;2.70;;;;;;;23.79;48.01;100424.72;5143360;27;20491;-63
2022/06/10 03:16:11;;;;;;;6.03;2.70;;;;;;;23.80;48.11;100427.16;5143060;27;20972;-64
2022/06/10 03:18:48;;;;;;;6.18;2.90;;;;;;;23.78;47.97;100426.59;5125022;27;20451;-64
2022/06/10 03:21:24;;;;;;;5.30;2.65;;;;;;;23.69;47.97;100430.09;5138473;27;20529;-64
2022/06/10 03:24:03;;;;;;;4.70;2.80;;;;;;;23.52;48.61;100433.81;5140841;27;20420;-64
2022/06/10 03:26:40;;;;;;;5.47;2.65;;;;;;;23.29;49.14;100430.44;5136780;27;20480;-64
2022/06/10 03:29:14;;;;;;;4.47;2.70;;;;;;;23.09;49.71;100427.59;5140639;27;20416;-64
2022/06/10 03:31:46;;;;;;;6.13;2.77;;;;;;;23.11;49.31;100436.28;5131467;27;20421;-64
2022/06/10 03:34:23;;;;;;;5.35;2.88;;;;;;;23.14;49.57;100432.22;5133512;27;20496;-64
2022/06/10 03:36:51;;;;;;;4.43;2.70;;;;;;;23.08;49.88;100434.91;5127179;27;20491;-64
2022/06/10 03:39:22;;;;;;;4.18;2.88;;;;;;;22.97;49.89;100435.06;5129755;27;20446;-64
2022/06/10 03:42:00;;;;;;;4.85;3.00;;;;;;;22.91;50.39;100436.91;5138272;27;20488;-64
2022/06/10 03:44:29;;;;;;;4.97;3.17;;;;;;;22.90;50.39;100444.22;5122806;27;20508;-64
2022/06/10 03:46:57;;;;;;;6.43;2.80;;;;;;;22.93;50.33;100442.88;5113258;27;20850;-63
2022/06/10 03:49:30;;;;;;;4.63;2.80;;;;;;;22.99;50.19;100455.34;5113347;27;20412;-64
2022/06/10 03:51:57;;;;;;;7.40;3.07;;;;;;;22.96;50.33;100444.22;5113941;27;21183;-64
2022/06/10 03:54:26;;;;;;;4.38;2.53;;;;;;;23.07;50.34;100448.69;5123353;27;20497;-64
2022/06/10 03:56:53;;;;;;;3.10;2.80;;;;;;;23.09;50.02;100455.44;5122828;27;20634;-65
2022/06/10 03:59:21;;;;;;;5.75;3.10;;;;;;;23.15;49.93;100456.28;5128700;27;20413;-64
2022/06/10 04:01:48;;;;;;;5.47;3.00;;;;;;;23.18;50.16;100457.69;5118742;27;20989;-65
2022/06/10 04:04:15;;;;;;;8.18;3.22;;;;;;;23.14;50.54;100460.09;5123839;27;20467;-64
2022/06/10 04:06:42;;;;;;;4.90;2.80;;;;;;;23.17;50.15;100461.44;5122420;27;20463;-63
2022/06/10 04:09:10;;;;;;;7.82;3.50;;;;;;;23.17;50.39;100464.97;5123994;27;20498;-64
2022/06/10 04:11:38;;;;;;;4.90;2.80;;;;;;;23.19;50.35;100462.84;5123759;27;20550;-65
2022/06/10 04:14:05;;;;;;;5.90;3.10;;;;;;;23.14;50.59;100460.09;5123533;27;20475;-64
2022/06/10 04:16:33;;;;;;;4.45;2.92;;;;;;;23.22;50.33;100461.50;5125606;27;20437;-64
2022/06/10 04:19:00;;;;;;;7.43;2.92;;;;;;;23.20;50.46;100460.94;5121834;27;20417;-64
2022/06/10 04:21:27;;;;;;;8.10;2.90;;;;;;;23.25;50.49;100461.78;5120138;27;20411;-63
2022/06/10 04:23:54;;;;;;;4.13;2.70;;;;;;;23.33;49.93;100470.47;5123252;27;20452;-64
2022/06/10 04:26:21;;;;;;;6.43;3.50;;;;;;;23.29;50.29;100471.00;5119134;27;20913;-64
2022/06/10 04:28:49;;;;;;;6.82;2.90;;;;;;;23.42;50.15;100474.31;5123600;27;20853;-65
2022/06/10 04:31:16;;;;;;;4.20;2.92;;;;;;;23.44;50.02;100469.47;5124876;27;20406;-65
2022/06/10 04:33:43;;;;;;;3.45;2.85;;;;;;;23.55;49.70;100479.28;5116410;27;20827;-66
2022/06/10 04:36:14;;;;;;;6.73;3.07;;;;;;;23.61;49.79;100482.81;5121575;27;20521;-62
2022/06/10 04:38:41;;;;;;;6.32;3.05;;;;;;;23.80;49.31;100481.31;5116619;27;20490;-62
2022/06/10 04:41:08;;;;;;;4.60;3.05;;;;;;;23.94;49.21;100478.94;5111103;27;20435;-61
2022/06/10 04:43:35;;;;;;;6.40;3.07;;;;;;;23.99;48.74;100478.97;5109790;27;20912;-63
2022/06/10 04:46:06;;;;;;;4.55;3.20;;;;;;;24.15;48.45;100485.25;5109659;28;20948;-62
2022/06/10 04:48:33;;;;;;;5.65;3.30;;;;;;;24.20;48.39;100487.97;5111282;27;20433;-63
2022/06/10 04:51:00;;;;;;;5.10;2.92;;;;;;;24.24;48.43;100490.97;5120237;27;20412;-64
2022/06/10 04:53:27;;;;;;;6.20;2.90;;;;;;;24.19;47.90;100480.91;5122517;27;20492;-64
2022/06/10 04:55:54;;;;;;;4.10;2.80;;;;;;;24.38;47.92;100485.81;5119520;27;20434;-64
2022/06/10 04:58:21;;;;;;;3.97;2.88;;;;;;;24.56;47.31;100487.25;5122850;27;21013;-62
2022/06/10 05:00:49;;;;;;;5.57;2.80;;;;;;;24.63;47.15;100487.78;5118112;27;20492;-64
2022/06/10 05:03:18;;;;;;;5.25;2.70;;;;;;;24.87;46.66;100485.38;5106297;28;20411;-63
2022/06/10 05:05:45;;;;;;;5.20;3.20;;;;;;;24.86;46.67;100483.75;5111140;27;21388;-63
2022/06/10 05:08:15;;;;;;;4.50;2.58;;;;;;;25.16;46.11;100492.97;5090878;28;20483;-63
2022/06/10 05:10:42;;;;;;;4.40;2.78;;;;;;;25.25;45.58;100493.25;5089817;28;20935;-63
2022/06/10 05:13:09;;;;;;;4.18;2.85;;;;;;;25.46;45.33;100496.72;5095862;28;20514;-63
2022/06/10 05:15:36;;;;;;;5.90;2.80;;;;;;;25.72;44.93;100494.78;5092164;28;20420;-64
2022/06/10 05:18:03;;;;;;;5.00;2.40;;;;;;;26.05;44.46;100497.94;5089366;28;20413;-63
2022/06/10 05:20:35;;;;;;;6.25;2.80;;;;;;;26.21;44.01;100504.91;5098465;28;20421;-64
2022/06/10 05:23:02;;;;;;;6.15;2.90;;;;;;;26.28;43.59;100502.69;5098616;28;20818;-64
2022/06/10 05:25:30;;;;;;;7.45;2.90;;;;;;;26.63;43.32;100498.19;5095545;28;20487;-64
2022/06/10 05:27:57;;;;;;;2.87;2.50;;;;;;;26.94;42.07;100499.81;5088005;28;20804;-64
2022/06/10 05:30:27;;;;;;;5.32;2.80;;;;;;;26.79;42.52;100500.75;5088333;28;20933;-64
2022/06/10 05:32:54;;;;;;;2.70;2.47;;;;;;;26.81;42.22;100501.28;5088882;28;20926;-64
2022/06/10 05:35:21;;;;;;;4.20;2.47;;;;;;;27.06;42.34;100497.53;5089592;28;20421;-64
2022/06/10 05:37:50;;;;;;;4.10;2.33;;;;;;;27.22;41.97;100503.66;5089501;28;20496;-64
2022/06/10 05:40:19;;;;;;;5.20;2.60;;;;;;;26.99;41.91;100502.50;5089770;28;20768;-64
2022/06/10 05:42:46;;;;;;;4.47;2.38;;;;;;;27.02;42.09;100508.19;5089980;28;20501;-64
2022/06/10 05:45:17;;;;;;;4.82;2.50;;;;;;;26.85;42.14;100508.59;5090112;28;20449;-64
2022/06/10 05:47:46;;;;;;;3.20;2.60;;;;;;;26.47;42.99;100504.75;5089570;28;20856;-64
2022/06/10 05:50:19;;;;;;;4.22;2.70;;;;;;;26.16;43.40;100501.41;5090100;28;20492;-65
2022/06/10 05:52:46;;;;;;;3.42;2.70;;;;;;;25.88;44.23;100509.13;5089401;28;21010;-65
2022/06/10 05:55:15;;;;;;;4.25;2.83;;;;;;;25.80;44.83;100512.41;5089628;28;20923;-65
2022/06/10 05:57:42;;;;;;;4.30;2.70;;;;;;;25.76;44.86;100509.41;5089489;28;20489;-65
2022/06/10 06:00:15;;;;;;;5.03;2.95;;;;;;;25.83;44.99;100507.22;5089771;28;20413;-64
2022/06/10 06:02:42;;;;;;;4.47;2.80;;;;;;;25.75;45.09;100518.66;5088576;28;20405;-65
2022/06/10 06:05:10;;;;;;;3.23;2.67;;;;;;;25.59;45.56;100522.50;5089271;28;20498;-65
2022/06/10 06:07:39;;;;;;;3.83;2.78;;;;;;;25.64;45.33;100506.19;5090172;28;20417;-65
2022/06/10 06:10:08;;;;;;;3.85;2.83;;;;;;;25.70;44.90;100521.41;5091000;28;20776;-64
2022/06/10 06:12:36;;;;;;;3.40;2.63;;;;;;;25.74;44.93;100523.25;5088592;28;20432;-64
2022/06/10 06:15:03;;;;;;;4.60;2.53;;;;;;;26.04;44.72;100518.06;5090703;28;20504;-65
2022/06/10 06:17:30;;;;;;;4.43;2.63;;;;;;;25.99;44.75;100516.16;5090842;28;20489;-64
2022/06/10 06:19:57;;;;;;;4.72;2.80;;;;;;;26.18;44.31;100510.09;5092279;28;20492;-65
2022/06/10 06:22:24;;;;;;;3.00;2.70;;;;;;;26.42;43.33;100513.75;5102771;28;20412;-65
2022/06/10 06:24:51;;;;;;;3.80;2.63;;;;;;;26.73;42.91;100518.22;5101630;28;20483;-65
2022/06/10 06:27:18;;;;;;;4.38;2.92;;;;;;;26.47;43.50;100512.91;5089435;28;20581;-65
2022/06/10 06:29:46;;;;;;;3.10;2.80;;;;;;;26.14;44.13;100515.25;5089032;28;20496;-65
2022/06/10 06:32:13;;;;;;;4.70;2.83;;;;;;;26.10;44.75;100522.34;5088447;28;20902;-65
2022/06/10 06:34:41;;;;;;;5.07;2.90;;;;;;;26.18;44.59;100523.66;5088612;28;20906;-65
2022/06/10 06:37:13;;;;;;;3.42;2.80;;;;;;;25.90;44.49;100521.31;5088482;28;20873;-64
2022/06/10 06:39:41;;;;;;;5.97;2.83;;;;;;;25.70;44.96;100529.53;5088700;28;20413;-65
2022/06/10 06:42:10;;;;;;;3.00;2.47;;;;;;;25.65;45.64;100529.53;5088820;28;20493;-64
2022/06/10 06:44:37;;;;;;;5.10;3.03;;;;;;;25.51;45.76;100524.66;5088780;28;20420;-64
2022/06/10 06:47:06;;;;;;;3.95;3.10;;;;;;;25.55;45.85;100528.50;5088611;28;21022;-64
2022/06/10 06:49:32;;;;;;;3.72;2.67;;;;;;;25.45;45.57;100528.50;5088891;28;20441;-64
2022/06/10 06:51:59;;;;;;;5.05;3.10;;;;;;;25.56;45.64;100524.66;5088947;28;20480;-64
2022/06/10 06:54:28;;;;;;;5.85;2.80;;;;;;;25.62;45.61;100521.94;5088303;28;20412;-64
2022/06/10 06:56:57;;;;;;;3.80;2.80;;;;;;;25.62;45.79;100521.94;5100640;28;20412;-64
2022/06/10 06:59:24;;;;;;;5.10;2.85;;;;;;;25.55;45.71;100522.22;5099789;28;20446;-65
2022/06/10 07:01:51;;;;;;;6.55;3.40;;;;;;;25.57;45.96;100520.06;5092364;28;20490;-64
2022/06/10 07:04:19;;;;;;;4.18;2.65;;;;;;;25.58;45.71;100518.97;5095055;28;20486;-63
2022/06/10 07:06:46;;;;;;;3.77;2.60;;;;;;;25.62;45.82;100525.47;5103170;28;20484;-65
2022/06/10 07:09:14;;;;;;;4.95;2.40;;;;;;;25.56;45.88;100523.88;5122183;28;20470;-64
2022/06/10 07:11:41;;;;;;;5.25;2.65;;;;;;;25.49;46.15;100518.72;5121371;28;20488;-64
2022/06/10 07:14:08;;;;;;;5.23;2.47;;;;;;;25.32;46.64;100524.44;5123589;28;20426;-64
2022/06/10 07:16:35;;;;;;;4.00;2.53;;;;;;;25.24;46.80;100516.84;5123762;28;20888;-63
2022/06/10 07:19:02;;;;;;;4.00;2.33;;;;;;;25.21;46.95;100520.09;5111838;27;20435;-63
2022/06/10 07:21:31;;;;;;;3.55;2.60;;;;;;;25.21;46.82;100527.41;5118151;27;21025;-63
2022/06/10 07:23:58;;;;;;;5.28;2.70;;;;;;;25.16;47.26;100525.53;5112411;28;20491;-64
2022/06/10 07:26:25;;;;;;;3.50;2.60;;;;;;;25.23;47.31;100523.34;5123917;27;20408;-64
2022/06/10 07:28:52;;;;;;;3.95;2.42;;;;;;;25.25;47.01;100521.19;5119220;27;20522;-64
2022/06/10 07:31:20;;;;;;;5.35;2.60;;;;;;;25.35;47.10;100526.63;5124374;27;20414;-64
2022/06/10 07:33:47;;;;;;;7.38;2.92;;;;;;;25.59;46.85;100519.78;5126890;27;20414;-64
2022/06/10 07:36:14;;;;;;;2.67;2.10;;;;;;;25.63;46.58;100510.00;5126693;27;20500;-64
2022/06/10 07:38:42;;;;;;;5.28;2.30;;;;;;;25.60;46.85;100516.78;5126966;27;20401;-65
2022/06/10 07:43:54;;;;;;;3.80;2.00;;;;;;;25.48;46.24;100524.41;5128890;27;20873;-63
2022/06/10 07:46:24;;;;;;;2.30;2.10;;;;;;;25.44;46.05;100520.63;5123423;27;20439;-63
2022/06/10 07:48:52;;;;;;;4.25;2.60;;;;;;;25.34;46.22;100521.47;5125426;27;20501;-64
2022/06/10 07:51:20;;;;;;;4.70;2.40;;;;;;;25.35;46.40;100525.78;5125178;27;20407;-63
2022/06/10 07:53:49;;;;;;;2.65;2.30;;;;;;;25.30;46.60;100520.38;5129293;27;20509;-64
2022/06/10 07:56:17;;;;;;;4.00;2.17;;;;;;;25.25;46.21;100523.09;5125702;27;20976;-64
2022/06/10 07:58:45;;;;;;;3.53;2.00;;;;;;;25.09;46.21;100525.78;5125587;27;20481;-64
2022/06/10 08:01:12;;;;;;;5.25;2.10;;;;;;;25.25;46.79;100528.53;5124907;27;20934;-64
2022/06/10 08:03:39;;;;;;;3.70;2.22;;;;;;;25.23;45.87;100523.34;5126304;27;20488;-64
2022/06/10 08:06:07;;;;;;;3.70;2.07;;;;;;;25.25;45.86;100534.75;5113623;27;20502;-64
2022/06/10 08:08:34;;;;;;;2.50;2.10;;;;;;;25.19;46.38;100519.53;5125090;27;20409;-63
2022/06/10 08:11:03;;;;;;;2.95;2.10;;;;;;;25.26;46.10;100532.84;5112073;28;20785;-64
2022/06/10 08:13:30;;;;;;;7.40;3.42;;;;;;;25.32;46.42;100527.16;5111588;28;20506;-64
2022/06/10 08:15:58;;;;;;;3.05;1.95;;;;;;;25.31;45.67;100530.16;5122935;27;20406;-64
2022/06/10 08:18:25;;;;;;;5.22;2.10;;;;;;;25.27;45.76;100532.59;5120819;27;20503;-63
2022/06/10 08:23:41;;;;;;;4.10;2.03;;;;;;;25.13;46.28;100536.91;5122194;27;20506;-62
2022/06/10 08:26:10;;;;;;;3.47;2.10;;;;;;;25.14;47.03;100535.84;5120416;27;20508;-63
2022/06/10 08:28:40;;;;;;;3.50;2.20;;;;;;;25.12;47.91;100543.41;5117789;27;20852;-63
2022/06/10 08:31:07;;;;;;;3.15;2.40;;;;;;;25.13;47.97;100534.19;5119988;27;20405;-63
2022/06/10 08:33:35;;;;;;;41.55;4.68;;;;;;;25.07;48.19;100532.56;5111432;28;20510;-63
2022/06/10 08:36:03;;;;;;;4.30;2.40;;;;;;;25.05;48.92;100545.56;5111204;28;20410;-70
2022/06/10 08:38:30;;;;;;;3.92;2.47;;;;;;;24.93;49.48;100552.09;5111292;28;20442;-70
2022/06/10 08:41:03;;;;;;;5.05;2.40;;;;;;;24.72;50.23;100548.56;5111422;28;20482;-72
2022/06/10 08:43:47;;;;;;;5.00;2.33;;;;;;;24.43;50.89;100573.38;5110791;28;20447;-71
2022/06/10 08:46:29;;;;;;;4.65;2.30;;;;;;;24.14;52.04;100600.06;5110794;28;20762;-71
2022/06/10 08:49:08;;;;;;;4.10;2.28;;;;;;;23.92;52.80;100583.16;5111204;28;20408;-71
2022/06/10 08:51:48;;;;;;;4.60;2.65;;;;;;;23.79;53.33;100595.25;5098455;28;20504;-71
2022/06/10 08:54:17;;;;;;;6.47;3.28;;;;;;;24.00;55.10;100567.25;5110688;28;20909;-71
2022/06/10 08:56:47;;;;;;;11.80;3.88;;;;;;;24.24;55.53;100577.63;5111029;28;20508;-71
2022/06/10 08:59:29;;;;;;;7.93;3.57;;;;;;;24.34;55.42;100572.25;5111086;28;20978;-70
2022/06/10 09:02:05;;;;;;;9.93;5.07;;;;;;;24.38;56.60;100565.22;5110981;28;20478;-70
2022/06/10 09:04:52;;;;;;;11.63;5.15;;;;;;;24.44;56.73;100566.06;5110945;28;20407;-69
2022/06/10 09:07:28;;;;;;;11.35;5.50;;;;;;;24.52;57.34;100567.44;5111272;28;20494;-70
2022/06/10 09:09:57;;;;;;;15.73;7.38;;;;;;;24.54;57.31;100581.56;5110799;28;20486;-70
2022/06/10 09:12:39;;;;;;;15.30;5.40;;;;;;;24.58;57.03;100580.75;5110622;28;20412;-70
2022/06/10 09:15:10;;;;;;;9.18;4.53;;;;;;;24.44;55.49;100574.19;5110315;28;21007;-70
2022/06/10 09:17:43;;;;;;;7.45;4.50;;;;;;;24.54;56.70;100568.00;5110629;28;20491;-70
2022/06/10 09:20:19;;;;;;;9.13;5.07;;;;;;;24.66;58.22;100571.28;5110421;27;20412;-69
2022/06/10 09:22:54;;;;;;;9.93;5.63;;;;;;;24.75;57.71;100577.81;5118027;27;20412;-70
2022/06/10 09:25:27;;;;;;;6.35;4.72;;;;;;;24.83;56.62;100578.38;5110314;28;20483;-70
2022/06/10 09:27:56;;;;;;;7.53;4.83;;;;;;;24.90;57.20;100576.22;5109729;28;20785;-70
2022/06/10 09:30:31;;;;;;;9.00;6.43;;;;;;;25.00;57.38;100570.81;5107472;28;20419;-70
2022/06/10 09:33:02;;;;;;;6.63;4.77;;;;;;;25.06;56.23;100566.19;5111047;27;20494;-70
2022/06/10 09:35:38;;;;;;;6.45;4.55;;;;;;;25.05;56.41;100567.25;5110900;27;20866;-70
2022/06/10 09:38:13;;;;;;;7.22;3.60;;;;;;;25.04;56.17;100571.88;5111606;28;20460;-70
2022/06/10 09:40:50;;;;;;;4.63;3.30;;;;;;;24.92;54.68;100576.75;5099707;28;20505;-69
2022/06/10 09:43:47;;;;;;;3.50;2.95;;;;;;;24.74;54.22;100578.06;5125512;27;21076;-68
2022/06/10 09:46:37;;;;;;;5.70;3.22;;;;;;;24.59;55.07;100579.66;5124981;27;20493;-67
2022/06/10 09:49:20;;;;;;;3.50;3.08;;;;;;;24.70;54.44;100577.78;5127688;27;20477;-68
2022/06/10 09:51:57;;;;;;;6.65;2.97;;;;;;;24.59;53.86;100568.81;5125855;27;20478;-68
2022/06/10 09:54:41;;;;;;;3.30;3.00;;;;;;;24.71;53.89;100578.63;5115974;27;20434;-68
2022/06/10 09:57:30;;;;;;;8.38;3.90;;;;;;;24.87;53.52;100574.06;5119555;27;20510;-68
2022/06/10 10:00:06;;;;;;;4.28;2.90;;;;;;;25.01;54.28;100575.13;5123183;27;20474;-69
2022/06/10 10:02:47;;;;;;;4.63;2.97;;;;;;;24.95;53.00;100571.59;5108818;27;20418;-69
2022/06/10 10:05:29;;;;;;;4.38;3.50;;;;;;;25.05;53.49;100578.94;5104306;27;20409;-69
2022/06/10 10:08:03;;;;;;;3.70;2.28;;;;;;;24.89;51.19;100574.59;5113342;27;20411;-69
2022/06/10 10:10:35;;;;;;;4.75;2.58;;;;;;;24.83;52.32;100572.94;5111194;28;20422;-69
2022/06/10 10:13:45;;;;;;;4.43;2.40;;;;;;;24.89;51.98;100574.59;5113900;27;20434;-68
2022/06/10 10:16:23;;;;;;;4.45;2.50;;;;;;;24.76;51.04;100574.03;5098537;28;20920;-69
2022/06/10 10:19:11;;;;;;;4.35;3.03;;;;;;;24.93;52.58;100572.97;5096691;28;20416;-69
2022/06/10 10:21:48;;;;;;;5.90;2.80;;;;;;;25.19;51.51;100576.50;5123793;27;20485;-69
2022/06/10 10:24:19;;;;;;;2.75;2.45;;;;;;;24.99;51.48;100578.13;5120096;27;20491;-69
2022/06/10 10:26:46;;;;;;;3.90;2.40;;;;;;;24.96;51.96;100575.16;5109683;28;20403;-69
2022/06/10 10:29:17;;;;;;;3.10;2.40;;;;;;;24.81;52.42;100578.63;5109331;28;20422;-69
2022/06/10 10:31:49;;;;;;;2.95;2.50;;;;;;;24.69;53.26;100591.66;5109476;28;20491;-69
2022/06/10 10:34:23;;;;;;;4.50;2.70;;;;;;;24.71;53.49;100586.75;5109289;28;20991;-69
2022/06/10 10:36:52;;;;;;;4.45;2.70;;;;;;;24.83;54.10;100583.78;5109523;28;20879;-69
2022/06/10 10:39:31;;;;;;;6.27;3.07;;;;;;;24.88;54.57;100570.25;5102568;28;20411;-70
2022/06/10 10:42:01;;;;;;;3.78;2.72;;;;;;;24.91;53.63;100564.28;5100624;28;20477;-71
2022/06/10 10:44:35;;;;;;;3.55;2.78;;;;;;;24.90;53.50;100565.38;5113636;28;20451;-71
2022/06/10 10:47:15;;;;;;;3.60;3.10;;;;;;;24.88;54.42;100564.81;5115855;28;20491;-69
2022/06/10 10:49:47;;;;;;;3.42;3.00;;;;;;;24.89;54.72;100566.47;5108544;28;20513;-71
2022/06/10 10:52:20;;;;;;;5.22;3.00;;;;;;;24.97;55.50;100569.47;5109970;28;20482;-70
2022/06/10 10:54:52;;;;;;;3.90;3.13;;;;;;;25.13;55.47;100567.53;5110800;27;20423;-70
2022/06/10 10:57:26;;;;;;;3.70;2.88;;;;;;;25.03;54.80;100572.16;5121505;27;20415;-70
2022/06/10 11:00:08;;;;;;;3.35;2.75;;;;;;;25.06;54.14;100575.13;5108678;28;20407;-69
2022/06/10 11:02:38;;;;;;;3.47;2.70;;;;;;;24.90;54.26;100579.75;5102107;28;20857;-70
2022/06/10 11:05:21;;;;;;;3.38;2.80;;;;;;;24.95;54.20;100582.44;5111059;28;20832;-70
2022/06/10 11:08:05;;;;;;;4.47;3.15;;;;;;;24.96;53.94;100575.97;5103724;27;20453;-70
2022/06/10 11:10:35;;;;;;;3.92;2.90;;;;;;;25.06;53.85;100574.34;5113526;28;20499;-69
2022/06/10 11:13:06;;;;;;;4.00;3.00;;;;;;;24.98;53.93;100570.28;5113010;28;20442;-69
2022/06/10 11:15:34;;;;;;;3.35;2.90;;;;;;;25.09;53.70;100558.34;5113120;28;20937;-70
2022/06/10 11:18:02;;;;;;;3.45;2.97;;;;;;;25.20;53.59;100556.44;5112848;28;20502;-69
2022/06/10 11:22:26;;;;;;;5.32;3.17;;;;;;;25.55;53.43;100552.06;5088454;27;2095634;-69
2022/06/10 11:24:56;;;;;;;5.03;3.05;;;;;;;25.63;52.55;100556.16;5149863;27;20413;-70
2022/06/10 11:27:31;;;;;;;4.30;2.83;;;;;;;25.68;52.11;100551.53;5153291;27;20905;-70
2022/06/10 11:30:02;;;;;;;4.22;3.03;;;;;;;25.63;51.90;100553.44;5158303;27;20401;-68
2022/06/10 11:32:33;;;;;;;5.95;2.70;;;;;;;25.67;50.24;100551.78;5148767;27;20492;-69
2022/06/10 11:35:03;;;;;;;3.72;2.83;;;;;;;25.71;50.55;100551.00;5148037;27;20413;-70
2022/06/10 11:37:36;;;;;;;4.80;2.60;;;;;;;25.79;49.51;100540.66;5156119;27;20430;-67
2022/06/10 11:40:13;;;;;;;2.50;2.30;;;;;;;25.72;49.38;100533.59;5166568;27;20468;-70
2022/06/10 11:42:45;;;;;;;3.88;2.55;;;;;;;25.86;48.69;100520.25;5165912;27;20415;-70
2022/06/10 11:45:20;;;;;;;4.10;2.50;;;;;;;25.82;48.79;100526.50;5167718;27;20487;-69
2022/06/10 11:47:55;;;;;;;3.33;2.38;;;;;;;25.80;48.84;100526.78;5165683;27;20490;-69
2022/06/10 11:50:28;;;;;;;5.18;2.45;;;;;;;25.86;49.56;100525.69;5155766;27;20950;-70
2022/06/10 11:53:03;;;;;;;3.80;2.40;;;;;;;26.05;48.83;100522.38;5159535;27;20973;-68
2022/06/10 11:55:35;;;;;;;3.50;2.20;;;;;;;26.08;47.59;100530.78;5167340;27;20460;-70
2022/06/10 12:01:15;;;;;;;3.53;2.00;;;;;;;25.85;47.09;100529.47;5101389;28;20464;-67
2022/06/10 12:03:48;;;;;;;2.97;2.13;;;;;;;25.97;47.61;100531.91;5101752;28;20483;-68
2022/06/10 12:06:22;;;;;;;4.63;2.33;;;;;;;25.92;47.71;100532.72;5135216;27;20478;-67
2022/06/10 12:08:54;;;;;;;2.30;2.10;;;;;;;26.09;46.81;100507.13;5168350;27;20478;-70
2022/06/10 12:11:37;;;;;;;5.57;2.33;;;;;;;26.25;46.78;100519.59;5167025;27;20498;-70
2022/06/10 12:14:13;;;;;;;3.23;2.37;;;;;;;26.30;47.13;100514.09;5168052;27;20486;-70
2022/06/10 12:16:41;;;;;;;2.88;2.10;;;;;;;26.26;45.91;100517.66;5152746;27;20446;-70
2022/06/10 12:19:16;;;;;;;4.20;2.50;;;;;;;26.34;47.31;100514.34;5161013;27;20492;-70
2022/06/10 12:21:43;;;;;;;3.15;2.17;;;;;;;26.54;47.28;100512.59;5161695;27;20425;-68
2022/06/10 12:24:16;;;;;;;3.50;2.30;;;;;;;26.69;46.68;100517.97;5152914;27;20436;-70
2022/06/10 12:26:49;;;;;;;2.87;2.40;;;;;;;26.87;45.85;100511.84;5151727;27;20405;-70
2022/06/10 12:29:20;;;;;;;3.78;2.17;;;;;;;26.97;45.45;100510.94;5167251;27;20439;-68
2022/06/10 12:32:03;;;;;;;3.20;2.10;;;;;;;26.90;44.67;100510.47;5152482;27;20416;-68
2022/06/10 12:34:51;;;;;;;3.47;2.20;;;;;;;26.91;45.06;100511.28;5133284;27;20542;-68
2022/06/10 12:37:29;;;;;;;3.20;1.87;;;;;;;26.82;44.58;100500.22;5137508;27;20406;-69
2022/06/10 12:40:03;;;;;;;3.67;2.10;;;;;;;26.88;45.10;100499.06;5142255;27;20404;-69
2022/06/10 12:42:39;;;;;;;2.33;1.98;;;;;;;26.91;44.44;100486.81;5136512;27;20931;-69
2022/06/10 12:45:16;;;;;;;2.95;1.85;;;;;;;27.11;44.02;100475.72;5132902;27;20492;-68
2022/06/10 12:47:44;;;;;;;2.20;2.00;;;;;;;27.11;44.19;100483.09;5150308;27;20396;-69
2022/06/10 12:50:20;;;;;;;3.88;2.25;;;;;;;27.09;44.92;100488.81;5153496;27;20472;-69
2022/06/10 12:53:21;;;;;;;3.00;2.00;;;;;;;27.16;44.16;100486.56;5145714;27;20476;-70
2022/06/10 12:55:51;;;;;;;5.35;2.40;;;;;;;27.11;43.96;100493.97;5128210;27;20862;-70
2022/06/10 12:58:48;;;;;;;3.25;1.92;;;;;;;27.21;44.68;100483.00;5147322;27;20416;-70
2022/06/10 13:01:20;;;;;;;3.83;2.00;;;;;;;27.23;43.54;100488.97;5137644;27;20420;-70
2022/06/10 13:03:49;;;;;;;3.72;1.90;;;;;;;27.26;42.88;100486.50;5149485;27;20404;-69
2022/06/10 13:06:50;;;;;;;3.35;2.03;;;;;;;27.35;43.10;100485.88;5151532;27;20901;-70
2022/06/10 13:09:30;;;;;;;2.97;2.20;;;;;;;27.48;43.11;100487.09;5152286;27;20897;-69
2022/06/10 13:12:00;;;;;;;5.45;2.28;;;;;;;27.60;42.86;100484.78;5149444;27;20400;-70
2022/06/10 13:14:43;;;;;;;3.03;2.03;;;;;;;27.67;43.69;100474.34;5148647;27;20396;-69
2022/06/10 13:17:23;;;;;;;3.45;2.10;;;;;;;27.74;43.17;100477.53;5140579;27;20434;-70
2022/06/10 13:20:26;;;;;;;2.90;2.45;;;;;;;27.82;43.27;100471.47;5134190;27;20734;-68
2022/06/10 13:23:19;;;;;;;3.22;2.25;;;;;;;27.95;42.43;100471.88;5134116;27;20406;-69
2022/06/10 13:25:50;;;;;;;3.25;2.92;;;;;;;27.98;44.16;100466.66;5125254;27;20597;-69
2022/06/10 13:28:26;;;;;;;4.03;2.70;;;;;;;28.03;44.30;100465.75;5134146;27;20503;-69
2022/06/10 13:31:05;;;;;;;5.10;3.05;;;;;;;28.09;44.48;100456.44;5141934;27;20894;-70
2022/06/10 13:33:32;;;;;;;5.50;3.10;;;;;;;28.15;44.29;100463.41;5139640;27;20430;-70
2022/06/10 13:35:59;;;;;;;4.32;3.28;;;;;;;28.17;44.42;100463.94;5139091;27;20487;-71
2022/06/10 13:38:30;;;;;;;3.85;3.40;;;;;;;28.17;44.60;100468.56;5136221;27;20488;-73
2022/06/10 13:43:48;;;;;;;5.75;3.42;;;;;;;28.06;44.70;100469.81;5150576;27;20488;-75
2022/06/10 13:46:20;;;;;;;7.70;3.40;;;;;;;28.06;45.69;100483.44;5138463;27;20492;-72
2022/06/10 13:48:47;;;;;;;6.93;3.33;;;;;;;28.04;46.39;100486.47;5139983;27;20409;-71
2022/06/10 13:51:28;;;;;;;7.65;3.83;;;;;;;27.91;49.00;100479.00;5133758;27;20491;-74
2022/06/10 13:54:03;;;;;;;6.38;4.32;;;;;;;27.81;50.51;100478.00;5130766;27;20410;-70
2022/06/10 13:56:34;;;;;;;6.13;4.50;;;;;;;27.80;51.60;100475.56;5150759;27;20469;-74
2022/06/10 13:59:02;;;;;;;7.93;4.90;;;;;;;27.71;52.05;100475.38;5151474;27;20412;-75
2022/06/10 14:01:31;;;;;;;5.82;5.18;;;;;;;27.62;52.51;100477.97;5134719;27;20508;-70
2022/06/10 14:04:04;;;;;;;7.35;5.18;;;;;;;27.54;53.01;100475.88;5149390;27;20402;-72
2022/06/10 14:06:33;;;;;;;7.13;5.53;;;;;;;27.47;52.84;100478.13;5139379;27;20938;-71
2022/06/10 14:09:06;;;;;;;7.53;5.75;;;;;;;27.40;53.06;100475.72;5136762;27;20899;-73
2022/06/10 14:11:35;;;;;;;6.15;5.35;;;;;;;27.34;52.66;100474.19;5139495;27;20416;-74
2022/06/10 14:14:16;;;;;;;6.10;5.50;;;;;;;27.31;53.27;100487.56;5137133;27;20480;-72
2022/06/10 14:16:43;;;;;;;6.47;5.43;;;;;;;27.27;53.85;100466.34;5139014;27;20408;-73
2022/06/10 14:19:14;;;;;;;7.38;5.35;;;;;;;27.26;53.21;100463.88;5136600;27;20495;-74
2022/06/10 14:21:41;;;;;;;6.93;5.22;;;;;;;27.22;53.47;100466.38;5141280;27;20508;-73
2022/06/10 14:24:20;;;;;;;6.40;5.25;;;;;;;27.18;53.22;100473.50;5150526;27;20419;-73
2022/06/10 14:26:56;;;;;;;6.80;5.35;;;;;;;27.14;52.95;100474.38;5145401;27;20404;-68
2022/06/10 14:29:29;;;;;;;7.07;5.40;;;;;;;27.08;53.35;100479.03;5138027;27;20413;-73
2022/06/10 14:32:02;;;;;;;6.45;5.82;;;;;;;27.05;53.55;100485.84;5129988;27;20937;-71
2022/06/10 14:34:29;;;;;;;7.55;6.75;;;;;;;27.05;54.18;100488.56;5131856;27;20818;-72
2022/06/10 14:37:04;;;;;;;6.22;5.55;;;;;;;27.07;53.78;100486.38;5136955;27;20408;-75
2022/06/10 14:39:32;;;;;;;6.83;5.90;;;;;;;27.03;53.79;100482.63;5135628;27;20402;-73
2022/06/10 14:42:03;;;;;;;6.25;5.65;;;;;;;27.00;54.24;100480.47;5131396;27;20500;-73
2022/06/10 14:44:53;;;;;;;7.38;6.65;;;;;;;27.00;54.78;100480.47;5134299;27;20409;-72
2022/06/10 14:47:22;;;;;;;6.40;5.70;;;;;;;26.97;54.94;100488.38;5133381;27;20412;-72
2022/06/10 14:49:56;;;;;;;6.75;5.43;;;;;;;26.96;54.19;100494.94;5131314;27;20505;-72
2022/06/10 14:52:27;;;;;;;5.97;5.43;;;;;;;26.95;53.27;100504.19;5135347;27;20449;-73
2022/06/10 14:54:56;;;;;;;6.40;5.80;;;;;;;26.92;54.48;100494.69;5131408;27;20481;-72
2022/06/10 14:57:26;;;;;;;5.85;5.35;;;;;;;26.88;53.52;100499.06;5140135;27;20483;-73
2022/06/10 14:59:55;;;;;;;6.15;5.55;;;;;;;26.88;53.45;100499.06;5139276;27;20468;-74
2022/06/10 15:02:22;;;;;;;6.00;5.40;;;;;;;26.86;53.58;100495.81;5137256;27;20508;-74
2022/06/10 15:07:36;;;;;;;12.40;9.50;;;;;;;26.82;55.77;100503.72;5140660;27;20396;-74
2022/06/10 15:10:05;;;;;;;8.85;7.40;;;;;;;26.79;56.33;100490.69;5137623;27;20411;-71